sensor_id;sensor_type;location;lat;lon;timestamp;pressure;altitude;pressure_sealevel;temperature;humidity
76632;BME280;65526;48.578;-4.520;2023-02-28T00:00:22;102545.72;;;4.48;73.21
76632;BME280;65526;48.578;-4.520;2023-02-28T00:02:49;102423.53;;;4.07;73.67
76632;BME280;65526;48.578;-4.520;2023-02-28T00:05:18;102137.81;;;2.32;73.56
76632;BME280;65526;48.578;-4.520;2023-02-28T00:07:45;102132.03;;;2.28;73.45
76632;BME280;65526;48.578;-4.520;2023-02-28T00:10:14;102384.13;;;3.27;73.63
76632;BME280;65526;48.578;-4.520;2023-02-28T00:12:41;102715.19;;;5.39;73.62
76632;BME280;65526;48.578;-4.520;2023-02-28T00:15:10;102131.94;;;2.23;73.44
76632;BME280;65526;48.578;-4.520;2023-02-28T00:17:37;102173.59;;;1.93;73.40
76632;BME280;65526;48.578;-4.520;2023-02-28T00:20:05;102132.28;;;2.27;73.38
76632;BME280;65526;48.578;-4.520;2023-02-28T00:22:47;102199.94;;;2.75;73.37
76632;BME280;65526;48.578;-4.520;2023-02-28T00:25:16;101871.59;;;0.79;73.18
76632;BME280;65526;48.578;-4.520;2023-02-28T00:27:43;102713.56;;;5.90;73.50
76632;BME280;65526;48.578;-4.520;2023-02-28T00:30:13;101688.34;;;-0.45;72.75
76632;BME280;65526;48.578;-4.520;2023-02-28T00:32:40;102839.69;;;5.90;73.53
76632;BME280;65526;48.578;-4.520;2023-02-28T00:35:08;102480.22;;;3.76;73.32
76632;BME280;65526;48.578;-4.520;2023-02-28T00:37:35;102217.16;;;2.70;73.77
76632;BME280;65526;48.578;-4.520;2023-02-28T00:40:01;102481.19;;;3.65;73.77
76632;BME280;65526;48.578;-4.520;2023-02-28T00:42:30;102783.13;;;5.92;74.44
76632;BME280;65526;48.578;-4.520;2023-02-28T00:44:57;101766.53;;;-0.17;73.88
76632;BME280;65526;48.578;-4.520;2023-02-28T00:47:23;102449.84;;;3.97;74.46
76632;BME280;65526;48.578;-4.520;2023-02-28T00:49:50;102764.28;;;5.84;75.29
76632;BME280;65526;48.578;-4.520;2023-02-28T00:52:16;102733.38;;;5.82;75.11
76632;BME280;65526;48.578;-4.520;2023-02-28T00:54:43;102309.63;;;2.65;74.69
76632;BME280;65526;48.578;-4.520;2023-02-28T00:57:09;102451.28;;;3.68;75.14
76632;BME280;65526;48.578;-4.520;2023-02-28T00:59:35;102391.94;;;3.40;75.72
76632;BME280;65526;48.578;-4.520;2023-02-28T01:02:02;102717.81;;;5.66;76.13
76632;BME280;65526;48.578;-4.520;2023-02-28T01:04:29;102138.69;;;2.11;75.36
76632;BME280;65526;48.578;-4.520;2023-02-28T01:06:56;102417.72;;;3.66;75.53
76632;BME280;65526;48.578;-4.520;2023-02-28T01:09:22;102163.16;;;2.17;75.75
76632;BME280;65526;48.578;-4.520;2023-02-28T01:11:49;102570.47;;;4.43;75.32
76632;BME280;65526;48.578;-4.520;2023-02-28T01:14:17;102304.03;;;3.08;75.20
76632;BME280;65526;48.578;-4.520;2023-02-28T01:16:45;102717.47;;;5.47;75.42
76632;BME280;65526;48.578;-4.520;2023-02-28T01:19:11;102191.66;;;1.68;75.04
76632;BME280;65526;48.578;-4.520;2023-02-28T01:21:38;102441.56;;;3.29;75.08
76632;BME280;65526;48.578;-4.520;2023-02-28T01:24:05;102724.88;;;5.42;75.71
76632;BME280;65526;48.578;-4.520;2023-02-28T01:26:33;102637.47;;;4.90;75.69
76632;BME280;65526;48.578;-4.520;2023-02-28T01:28:59;102753.81;;;5.39;76.51
76632;BME280;65526;48.578;-4.520;2023-02-28T01:31:26;102303.22;;;2.11;75.79
76632;BME280;65526;48.578;-4.520;2023-02-28T01:33:52;102798.81;;;5.45;76.36
76632;BME280;65526;48.578;-4.520;2023-02-28T01:36:22;102371.22;;;3.01;76.02
76632;BME280;65526;48.578;-4.520;2023-02-28T01:38:48;102404.81;;;3.08;76.15
76632;BME280;65526;48.578;-4.520;2023-02-28T01:41:30;102100.22;;;1.74;76.36
76632;BME280;65526;48.578;-4.520;2023-02-28T01:44:05;101870.16;;;0.28;76.01
76632;BME280;65526;48.578;-4.520;2023-02-28T01:46:34;102332.34;;;2.60;75.85
76632;BME280;65526;48.578;-4.520;2023-02-28T01:49:11;102513.84;;;3.83;76.08
76632;BME280;65526;48.578;-4.520;2023-02-28T01:51:46;102721.88;;;5.48;76.66
76632;BME280;65526;48.578;-4.520;2023-02-28T01:54:20;102126.34;;;1.81;76.67
76632;BME280;65526;48.578;-4.520;2023-02-28T01:56:58;102431.94;;;3.31;76.42
76632;BME280;65526;48.578;-4.520;2023-02-28T01:59:34;102378.78;;;2.89;76.38
76632;BME280;65526;48.578;-4.520;2023-02-28T02:02:02;101853.63;;;0.18;75.84
76632;BME280;65526;48.578;-4.520;2023-02-28T02:04:37;102553.63;;;3.75;76.59
76632;BME280;65526;48.578;-4.520;2023-02-28T02:07:05;102184.97;;;1.80;75.99
76632;BME280;65526;48.578;-4.520;2023-02-28T02:09:32;102379.88;;;3.14;76.00
76632;BME280;65526;48.578;-4.520;2023-02-28T02:12:01;102141.53;;;1.94;75.25
76632;BME280;65526;48.578;-4.520;2023-02-28T02:18:01;102704.56;;;5.58;76.03
76632;BME280;65526;48.578;-4.520;2023-02-28T02:20:58;102707.03;;;5.59;76.22
76632;BME280;65526;48.578;-4.520;2023-02-28T02:24:03;102704.84;;;5.56;76.10
76632;BME280;65526;48.578;-4.520;2023-02-28T02:29:37;102705.66;;;5.57;76.22
76632;BME280;65526;48.578;-4.520;2023-02-28T02:34:59;102710.09;;;5.58;77.14
76632;BME280;65526;48.578;-4.520;2023-02-28T02:37:44;102201.59;;;2.22;76.46
76632;BME280;65526;48.578;-4.520;2023-02-28T02:40:17;101988.38;;;0.73;76.75
76632;BME280;65526;48.578;-4.520;2023-02-28T02:45:29;102714.47;;;5.54;76.65
76632;BME280;65526;48.578;-4.520;2023-02-28T02:48:03;102102.44;;;1.55;76.27
76632;BME280;65526;48.578;-4.520;2023-02-28T02:50:36;102196.84;;;2.39;76.47
76632;BME280;65526;48.578;-4.520;2023-02-28T02:53:05;101848.91;;;-0.09;75.79
76632;BME280;65526;48.578;-4.520;2023-02-28T02:55:36;102754.72;;;5.50;76.36
76632;BME280;65526;48.578;-4.520;2023-02-28T02:58:16;101728.75;;;-0.64;76.06
76632;BME280;65526;48.578;-4.520;2023-02-28T03:00:52;102210.03;;;2.43;76.59
76632;BME280;65526;48.578;-4.520;2023-02-28T03:03:21;102135.94;;;1.84;76.66
76632;BME280;65526;48.578;-4.520;2023-02-28T03:06:00;101848.47;;;0.21;76.63
76632;BME280;65526;48.578;-4.520;2023-02-28T03:08:29;102476.81;;;3.64;77.36
76632;BME280;65526;48.578;-4.520;2023-02-28T03:10:58;102463.84;;;3.91;77.49
76632;BME280;65526;48.578;-4.520;2023-02-28T03:19:46;102704.22;;;5.44;77.71
76632;BME280;65526;48.578;-4.520;2023-02-28T03:22:33;102706.94;;;5.39;77.44
76632;BME280;65526;48.578;-4.520;2023-02-28T03:25:18;102717.09;;;5.34;77.54
76632;BME280;65526;48.578;-4.520;2023-02-28T03:33:17;102195.53;;;1.93;77.47
76632;BME280;65526;48.578;-4.520;2023-02-28T03:35:52;102186.69;;;1.86;78.06
76632;BME280;65526;48.578;-4.520;2023-02-28T03:40:49;102331.06;;;2.95;78.00
76632;BME280;65526;48.578;-4.520;2023-02-28T03:43:22;101755.81;;;-0.62;77.90
76632;BME280;65526;48.578;-4.520;2023-02-28T03:45:50;101858.47;;;-0.06;78.61
76632;BME280;65526;48.578;-4.520;2023-02-28T03:48:26;102277.66;;;2.54;78.06
76632;BME280;65526;48.578;-4.520;2023-02-28T03:50:55;101752.91;;;-0.56;78.21
76632;BME280;65526;48.578;-4.520;2023-02-28T03:55:59;102159.31;;;1.91;78.04
76632;BME280;65526;48.578;-4.520;2023-02-28T03:58:54;102119.06;;;1.70;77.68
76632;BME280;65526;48.578;-4.520;2023-02-28T04:03:51;102190.25;;;2.09;76.85
76632;BME280;65526;48.578;-4.520;2023-02-28T04:06:20;101967.00;;;0.32;76.92
76632;BME280;65526;48.578;-4.520;2023-02-28T04:08:47;102807.38;;;5.48;77.00
76632;BME280;65526;48.578;-4.520;2023-02-28T04:13:44;102875.50;;;5.53;76.51
76632;BME280;65526;48.578;-4.520;2023-02-28T04:16:11;102442.94;;;3.31;76.39
76632;BME280;65526;48.578;-4.520;2023-02-28T04:18:38;102467.63;;;3.53;76.65
76632;BME280;65526;48.578;-4.520;2023-02-28T04:21:06;102314.72;;;2.56;76.41
76632;BME280;65526;48.578;-4.520;2023-02-28T04:23:33;101941.22;;;0.45;76.43
76632;BME280;65526;48.578;-4.520;2023-02-28T04:25:59;102469.63;;;3.89;76.55
76632;BME280;65526;48.578;-4.520;2023-02-28T04:28:25;102164.22;;;1.89;77.00
76632;BME280;65526;48.578;-4.520;2023-02-28T04:30:59;102343.34;;;3.14;77.16
76632;BME280;65526;48.578;-4.520;2023-02-28T04:33:26;102446.91;;;3.40;78.00
76632;BME280;65526;48.578;-4.520;2023-02-28T04:36:05;102448.63;;;3.51;77.96
76632;BME280;65526;48.578;-4.520;2023-02-28T04:38:36;102091.59;;;1.65;78.32
76632;BME280;65526;48.578;-4.520;2023-02-28T04:41:03;102048.03;;;0.76;78.30
76632;BME280;65526;48.578;-4.520;2023-02-28T04:43:31;102452.34;;;3.62;80.29
76632;BME280;65526;48.578;-4.520;2023-02-28T04:46:01;102380.53;;;3.27;81.23
76632;BME280;65526;48.578;-4.520;2023-02-28T04:48:30;102258.53;;;2.37;82.15
76632;BME280;65526;48.578;-4.520;2023-02-28T04:51:10;102537.91;;;3.71;82.75
76632;BME280;65526;48.578;-4.520;2023-02-28T05:26:44;102827.94;;;5.31;84.96
76632;BME280;65526;48.578;-4.520;2023-02-28T05:29:13;102469.59;;;3.31;84.31
76632;BME280;65526;48.578;-4.520;2023-02-28T05:31:39;102623.59;;;4.43;84.00
76632;BME280;65526;48.578;-4.520;2023-02-28T05:34:06;102536.69;;;3.56;83.21
76632;BME280;65526;48.578;-4.520;2023-02-28T05:36:33;102113.34;;;1.50;82.63
76632;BME280;65526;48.578;-4.520;2023-02-28T05:38:59;102532.09;;;3.40;82.77
76632;BME280;65526;48.578;-4.520;2023-02-28T05:41:26;102260.78;;;2.40;82.33
76632;BME280;65526;48.578;-4.520;2023-02-28T05:43:52;102420.13;;;3.04;83.48
76632;BME280;65526;48.578;-4.520;2023-02-28T05:46:19;102440.22;;;2.83;82.36
76632;BME280;65526;48.578;-4.520;2023-02-28T05:48:47;102490.91;;;3.45;82.41
76632;BME280;65526;48.578;-4.520;2023-02-28T05:51:14;102188.91;;;1.89;83.07
76632;BME280;65526;48.578;-4.520;2023-02-28T05:53:40;101780.44;;;-0.74;82.13
76632;BME280;65526;48.578;-4.520;2023-02-28T05:56:07;102839.66;;;5.53;82.83
76632;BME280;65526;48.578;-4.520;2023-02-28T05:58:33;101974.59;;;0.68;82.30
76632;BME280;65526;48.578;-4.520;2023-02-28T06:01:22;102421.59;;;3.38;82.26
76632;BME280;65526;48.578;-4.520;2023-02-28T06:03:49;101748.16;;;-0.82;82.43
76632;BME280;65526;48.578;-4.520;2023-02-28T06:06:16;102104.44;;;1.38;81.76
76632;BME280;65526;48.578;-4.520;2023-02-28T06:08:43;102411.84;;;3.26;82.22
76632;BME280;65526;48.578;-4.520;2023-02-28T06:11:10;102545.09;;;3.23;81.56
76632;BME280;65526;48.578;-4.520;2023-02-28T06:13:37;102599.59;;;3.80;82.37
76632;BME280;65526;48.578;-4.520;2023-02-28T06:16:03;102455.16;;;2.92;82.78
76632;BME280;65526;48.578;-4.520;2023-02-28T06:18:30;102202.94;;;1.71;81.63
76632;BME280;65526;48.578;-4.520;2023-02-28T06:20:57;102231.28;;;2.04;82.28
76632;BME280;65526;48.578;-4.520;2023-02-28T06:23:23;102521.03;;;3.35;81.40
76632;BME280;65526;48.578;-4.520;2023-02-28T06:25:50;102416.31;;;3.05;83.55
76632;BME280;65526;48.578;-4.520;2023-02-28T06:28:16;102787.06;;;5.23;84.35
76632;BME280;65526;48.578;-4.520;2023-02-28T06:30:43;102282.81;;;1.41;85.75
76632;BME280;65526;48.578;-4.520;2023-02-28T06:33:09;101719.88;;;-1.43;85.46
76632;BME280;65526;48.578;-4.520;2023-02-28T06:35:35;102475.53;;;2.74;84.74
76632;BME280;65526;48.578;-4.520;2023-02-28T06:38:02;102442.19;;;2.87;86.01
76632;BME280;65526;48.578;-4.520;2023-02-28T06:40:29;102264.91;;;1.55;85.76
76632;BME280;65526;48.578;-4.520;2023-02-28T06:42:57;101876.16;;;-0.64;86.18
76632;BME280;65526;48.578;-4.520;2023-02-28T06:45:24;102468.50;;;2.83;86.36
76632;BME280;65526;48.578;-4.520;2023-02-28T06:47:52;102480.84;;;3.02;86.21
76632;BME280;65526;48.578;-4.520;2023-02-28T06:50:19;102268.69;;;1.71;85.58
76632;BME280;65526;48.578;-4.520;2023-02-28T06:52:46;102246.31;;;1.57;84.94
76632;BME280;65526;48.578;-4.520;2023-02-28T06:55:13;102202.88;;;1.88;83.69
76632;BME280;65526;48.578;-4.520;2023-02-28T06:57:40;102892.13;;;5.58;83.63
76632;BME280;65526;48.578;-4.520;2023-02-28T07:00:08;102528.63;;;3.50;82.89
76632;BME280;65526;48.578;-4.520;2023-02-28T07:02:36;102071.94;;;0.48;81.89
76632;BME280;65526;48.578;-4.520;2023-02-28T07:05:06;102488.41;;;3.44;81.38
76632;BME280;65526;48.578;-4.520;2023-02-28T07:07:33;102803.63;;;5.65;81.51
76632;BME280;65526;48.578;-4.520;2023-02-28T07:10:02;102499.00;;;3.57;80.93
76632;BME280;65526;48.578;-4.520;2023-02-28T07:12:28;101917.63;;;0.22;80.34
76632;BME280;65526;48.578;-4.520;2023-02-28T07:14:55;102379.69;;;2.72;80.78
76632;BME280;65526;48.578;-4.520;2023-02-28T07:17:21;102651.03;;;4.33;81.26
76632;BME280;65526;48.578;-4.520;2023-02-28T07:19:48;102328.16;;;1.87;80.84
76632;BME280;65526;48.578;-4.520;2023-02-28T07:22:14;102510.88;;;3.36;80.71
76632;BME280;65526;48.578;-4.520;2023-02-28T07:24:41;102822.09;;;5.27;82.45
76632;BME280;65526;48.578;-4.520;2023-02-28T07:27:07;102359.28;;;2.20;82.13
76632;BME280;65526;48.578;-4.520;2023-02-28T07:29:33;102549.00;;;3.54;81.64
76632;BME280;65526;48.578;-4.520;2023-02-28T07:32:00;102621.28;;;3.76;80.84
76632;BME280;65526;48.578;-4.520;2023-02-28T07:34:26;102516.59;;;3.29;80.48
76632;BME280;65526;48.578;-4.520;2023-02-28T07:36:53;102098.81;;;0.51;80.17
76632;BME280;65526;48.578;-4.520;2023-02-28T07:39:21;102622.13;;;3.77;80.28
76632;BME280;65526;48.578;-4.520;2023-02-28T07:41:47;102210.31;;;1.92;80.18
76632;BME280;65526;48.578;-4.520;2023-02-28T07:44:14;102591.28;;;4.02;79.98
76632;BME280;65526;48.578;-4.520;2023-02-28T07:46:41;102253.47;;;1.58;79.57
76632;BME280;65526;48.578;-4.520;2023-02-28T07:49:07;102669.38;;;3.95;79.58
76632;BME280;65526;48.578;-4.520;2023-02-28T07:51:33;102285.97;;;2.37;79.45
76632;BME280;65526;48.578;-4.520;2023-02-28T07:54:00;102278.53;;;2.32;79.11
76632;BME280;65526;48.578;-4.520;2023-02-28T07:56:26;102263.34;;;2.25;79.27
76632;BME280;65526;48.578;-4.520;2023-02-28T07:58:53;102603.44;;;3.79;79.16
76632;BME280;65526;48.578;-4.520;2023-02-28T08:01:19;102280.44;;;2.32;79.18
76632;BME280;65526;48.578;-4.520;2023-02-28T08:03:46;102225.50;;;1.78;79.28
76632;BME280;65526;48.578;-4.520;2023-02-28T08:06:18;102502.94;;;3.66;79.29
76632;BME280;65526;48.578;-4.520;2023-02-28T08:08:45;102575.72;;;3.58;79.07
76632;BME280;65526;48.578;-4.520;2023-02-28T08:11:11;102288.63;;;2.27;78.84
76632;BME280;65526;48.578;-4.520;2023-02-28T08:13:38;101932.53;;;-0.08;78.56
76632;BME280;65526;48.578;-4.520;2023-02-28T08:16:04;102287.00;;;2.09;79.13
76632;BME280;65526;48.578;-4.520;2023-02-28T08:18:39;101913.66;;;-0.43;78.63
76632;BME280;65526;48.578;-4.520;2023-02-28T08:21:13;101879.06;;;-0.70;78.60
76632;BME280;65526;48.578;-4.520;2023-02-28T08:24:09;101998.94;;;-0.07;78.73
76632;BME280;65526;48.578;-4.520;2023-02-28T08:26:37;101939.63;;;-0.40;78.69
76632;BME280;65526;48.578;-4.520;2023-02-28T08:32:40;102888.72;;;5.83;79.34
76632;BME280;65526;48.578;-4.520;2023-02-28T08:35:22;102842.97;;;5.50;79.16
76632;BME280;65526;48.578;-4.520;2023-02-28T08:38:11;102254.50;;;1.74;78.68
76632;BME280;65526;48.578;-4.520;2023-02-28T08:41:02;102987.28;;;5.87;79.36
76632;BME280;65526;48.578;-4.520;2023-02-28T08:43:44;102030.63;;;-0.06;78.34
76632;BME280;65526;48.578;-4.520;2023-02-28T08:46:54;102681.84;;;4.30;79.15
76632;BME280;65526;48.578;-4.520;2023-02-28T08:49:53;102314.78;;;2.34;78.86
76632;BME280;65526;48.578;-4.520;2023-02-28T08:52:39;102269.22;;;1.68;78.45
76632;BME280;65526;48.578;-4.520;2023-02-28T08:55:41;101901.63;;;-0.75;78.65
76632;BME280;65526;48.578;-4.520;2023-02-28T08:58:25;101945.31;;;-0.58;79.45
76632;BME280;65526;48.578;-4.520;2023-02-28T09:01:24;102302.13;;;2.12;80.87
76632;BME280;65526;48.578;-4.520;2023-02-28T09:04:10;102020.63;;;-0.01;79.90
76632;BME280;65526;48.578;-4.520;2023-02-28T09:06:50;102630.25;;;3.67;80.79
76632;BME280;65526;48.578;-4.520;2023-02-28T09:09:28;102019.94;;;-0.24;80.41
76632;BME280;65526;48.578;-4.520;2023-02-28T09:12:14;102446.03;;;2.86;81.27
76632;BME280;65526;48.578;-4.520;2023-02-28T09:14:50;102825.78;;;5.38;80.63
76632;BME280;65526;48.578;-4.520;2023-02-28T09:17:30;102034.13;;;0.06;79.75
76632;BME280;65526;48.578;-4.520;2023-02-28T09:20:29;102976.59;;;5.96;80.56
76632;BME280;65526;48.578;-4.520;2023-02-28T09:23:19;102053.91;;;0.30;80.10
76632;BME280;65526;48.578;-4.520;2023-02-28T09:26:21;102921.78;;;6.10;79.52
76632;BME280;65526;48.578;-4.520;2023-02-28T09:35:31;102996.94;;;6.22;79.00
76632;BME280;65526;48.578;-4.520;2023-02-28T09:38:37;102023.34;;;0.71;78.31
76632;BME280;65526;48.578;-4.520;2023-02-28T09:41:36;102038.88;;;0.66;78.23
76632;BME280;65526;48.578;-4.520;2023-02-28T09:44:52;102705.78;;;4.93;78.60
76632;BME280;65526;48.578;-4.520;2023-02-28T09:47:52;102403.28;;;2.68;78.42
76632;BME280;65526;48.578;-4.520;2023-02-28T09:50:59;102911.94;;;6.24;78.85
76632;BME280;65526;48.578;-4.520;2023-02-28T09:53:37;102909.97;;;6.19;78.99
76632;BME280;65526;48.578;-4.520;2023-02-28T09:56:31;101922.56;;;0.03;78.02
76632;BME280;65526;48.578;-4.520;2023-02-28T10:04:51;102027.84;;;-0.40;81.77
76632;BME280;65526;48.578;-4.520;2023-02-28T10:10:24;101996.84;;;-0.90;82.87
76632;BME280;65526;48.578;-4.520;2023-02-28T10:12:55;102027.31;;;-0.53;81.44
76632;BME280;65526;48.578;-4.520;2023-02-28T10:15:26;101949.94;;;-0.75;81.27
76632;BME280;65526;48.578;-4.520;2023-02-28T10:18:00;102191.72;;;0.46;81.04
76632;BME280;65526;48.578;-4.520;2023-02-28T10:20:32;102374.22;;;1.90;80.49
76632;BME280;65526;48.578;-4.520;2023-02-28T10:25:37;102039.81;;;0.21;80.25
76632;BME280;65526;48.578;-4.520;2023-02-28T10:30:37;101942.13;;;-0.22;80.73
76632;BME280;65526;48.578;-4.520;2023-02-28T10:33:08;101999.34;;;0.18;80.96
76632;BME280;65526;48.578;-4.520;2023-02-28T10:35:35;102060.22;;;0.30;80.71
76632;BME280;65526;48.578;-4.520;2023-02-28T10:38:13;101977.13;;;-0.19;80.14
76632;BME280;65526;48.578;-4.520;2023-02-28T10:40:40;102104.78;;;0.48;80.27
76632;BME280;65526;48.578;-4.520;2023-02-28T10:45:54;102634.88;;;4.42;82.43
76632;BME280;65526;48.578;-4.520;2023-02-28T10:50:51;102928.59;;;6.44;80.43
76632;BME280;65526;48.578;-4.520;2023-02-28T10:53:31;101960.94;;;0.30;80.55
76632;BME280;65526;48.578;-4.520;2023-02-28T10:59:03;102930.91;;;6.67;79.97
76632;BME280;65526;48.578;-4.520;2023-02-28T11:01:50;102366.34;;;3.08;79.59
76632;BME280;65526;48.578;-4.520;2023-02-28T11:04:33;102057.41;;;1.02;80.30
76632;BME280;65526;48.578;-4.520;2023-02-28T11:07:17;102044.00;;;1.01;80.43
76632;BME280;65526;48.578;-4.520;2023-02-28T11:09:52;102481.75;;;3.35;81.49
76632;BME280;65526;48.578;-4.520;2023-02-28T11:12:34;102547.75;;;4.25;81.87
76632;BME280;65526;48.578;-4.520;2023-02-28T11:15:06;102936.91;;;6.49;82.75
76632;BME280;65526;48.578;-4.520;2023-02-28T11:17:33;102370.56;;;2.89;82.57
76632;BME280;65526;48.578;-4.520;2023-02-28T11:20:04;102608.03;;;4.27;83.06
76632;BME280;65526;48.578;-4.520;2023-02-28T11:22:37;102139.06;;;1.49;83.04
76632;BME280;65526;48.578;-4.520;2023-02-28T11:25:26;102612.66;;;4.21;83.55
76632;BME280;65526;48.578;-4.520;2023-02-28T11:27:55;102367.34;;;2.26;85.35
76632;BME280;65526;48.578;-4.520;2023-02-28T11:30:30;102789.72;;;5.12;86.12
76632;BME280;65526;48.578;-4.520;2023-02-28T11:32:57;102414.50;;;2.67;85.34
76632;BME280;65526;48.578;-4.520;2023-02-28T11:35:31;102741.22;;;5.11;85.99
76632;BME280;65526;48.578;-4.520;2023-02-28T11:38:00;102284.78;;;1.84;84.98
76632;BME280;65526;48.578;-4.520;2023-02-28T11:40:33;102931.03;;;6.35;85.04
76632;BME280;65526;48.578;-4.520;2023-02-28T11:43:21;102969.19;;;6.39;85.20
76632;BME280;65526;48.578;-4.520;2023-02-28T11:51:18;102911.84;;;6.14;86.47
76632;BME280;65526;48.578;-4.520;2023-02-28T11:54:31;102463.22;;;3.52;86.23
76632;BME280;65526;48.578;-4.520;2023-02-28T12:11:53;102088.00;;;2.13;86.06
76632;BME280;65526;48.578;-4.520;2023-02-28T12:29:19;102827.09;;;6.14;86.20
76632;BME280;65526;48.578;-4.520;2023-02-28T12:32:26;102899.25;;;7.00;85.75
76632;BME280;65526;48.578;-4.520;2023-02-28T12:35:04;102063.41;;;1.96;83.35
76632;BME280;65526;48.578;-4.520;2023-02-28T12:40:56;101995.59;;;1.28;80.91
76632;BME280;65526;48.578;-4.520;2023-02-28T12:43:34;102954.63;;;7.31;82.11
76632;BME280;65526;48.578;-4.520;2023-02-28T12:46:41;102325.03;;;4.04;81.78
76632;BME280;65526;48.578;-4.520;2023-02-28T12:49:23;101968.53;;;1.90;81.57
76632;BME280;65526;48.578;-4.520;2023-02-28T12:52:04;102234.84;;;3.58;82.34
76632;BME280;65526;48.578;-4.520;2023-02-28T12:54:48;102401.88;;;4.20;81.19
76632;BME280;65526;48.578;-4.520;2023-02-28T12:57:42;102874.69;;;7.65;80.99
76632;BME280;65526;48.578;-4.520;2023-02-28T13:00:20;102873.59;;;7.66;80.49
76632;BME280;65526;48.578;-4.520;2023-02-28T13:11:28;101961.97;;;1.33;80.43
76632;BME280;65526;48.578;-4.520;2023-02-28T13:13:58;102575.16;;;5.36;81.79
76632;BME280;65526;48.578;-4.520;2023-02-28T13:16:25;102320.44;;;3.72;83.94
76632;BME280;65526;48.578;-4.520;2023-02-28T13:18:52;102909.81;;;7.24;83.03
76632;BME280;65526;48.578;-4.520;2023-02-28T13:21:29;102280.59;;;3.75;83.53
76632;BME280;65526;48.578;-4.520;2023-02-28T13:23:59;102536.81;;;5.30;84.03
76632;BME280;65526;48.578;-4.520;2023-02-28T13:37:43;102293.53;;;3.79;84.64
76632;BME280;65526;48.578;-4.520;2023-02-28T13:42:56;102058.66;;;2.14;82.69
76632;BME280;65526;48.578;-4.520;2023-02-28T15:08:20;102541.59;;;5.80;84.19
76632;BME280;65526;48.578;-4.520;2023-02-28T15:11:05;102631.81;;;5.74;82.40
76632;BME280;65526;48.578;-4.520;2023-02-28T15:13:40;101944.59;;;2.18;80.71
76632;BME280;65526;48.578;-4.520;2023-02-28T15:16:18;102483.63;;;5.49;79.87
76632;BME280;65526;48.578;-4.520;2023-02-28T15:23:57;102767.66;;;7.40;79.99
76632;BME280;65526;48.578;-4.520;2023-02-28T15:34:41;102617.34;;;6.40;79.92
76632;BME280;65526;48.578;-4.520;2023-02-28T16:17:41;102243.69;;;3.66;78.71
76632;BME280;65526;48.578;-4.520;2023-02-28T18:07:57;102481.94;;;5.33;77.47
76632;BME280;65526;48.578;-4.520;2023-02-28T18:10:26;101802.66;;;1.09;78.35
76632;BME280;65526;48.578;-4.520;2023-02-28T19:19:00;102478.38;;;5.48;77.99
76632;BME280;65526;48.578;-4.520;2023-02-28T19:21:26;102161.47;;;3.64;78.02
76632;BME280;65526;48.578;-4.520;2023-02-28T19:23:53;102462.44;;;5.75;78.08
76632;BME280;65526;48.578;-4.520;2023-02-28T20:09:31;102703.75;;;7.31;79.94
76632;BME280;65526;48.578;-4.520;2023-02-28T21:05:00;102095.06;;;4.38;75.95
76632;BME280;65526;48.578;-4.520;2023-02-28T21:07:30;101681.59;;;2.01;75.20
76632;BME280;65526;48.578;-4.520;2023-02-28T21:09:58;102278.50;;;5.45;76.24
76632;BME280;65526;48.578;-4.520;2023-02-28T21:12:28;102579.03;;;7.87;75.71
76632;BME280;65526;48.578;-4.520;2023-02-28T23:28:56;101981.44;;;2.32;87.08
76632;BME280;65526;48.578;-4.520;2023-02-28T23:31:25;101657.53;;;0.08;86.21
76632;BME280;65526;48.578;-4.520;2023-02-28T23:33:54;102286.47;;;3.93;86.68
76632;BME280;65526;48.578;-4.520;2023-02-28T23:36:22;102008.13;;;2.42;86.55
76632;BME280;65526;48.578;-4.520;2023-02-28T23:38:50;102635.50;;;5.95;87.11
76632;BME280;65526;48.578;-4.520;2023-02-28T23:41:18;102069.78;;;2.34;86.31
76632;BME280;65526;48.578;-4.520;2023-02-28T23:43:45;102202.44;;;3.66;86.72
76632;BME280;65526;48.578;-4.520;2023-02-28T23:46:13;101966.16;;;1.67;86.31
76632;BME280;65526;48.578;-4.520;2023-02-28T23:48:40;101834.63;;;1.35;85.72
76632;BME280;65526;48.578;-4.520;2023-02-28T23:51:12;102223.69;;;3.80;86.07
76632;BME280;65526;48.578;-4.520;2023-02-28T23:53:44;102254.25;;;3.89;85.87
76632;BME280;65526;48.578;-4.520;2023-02-28T23:56:13;102027.47;;;2.25;86.11
76632;BME280;65526;48.578;-4.520;2023-02-28T23:58:44;101981.94;;;2.24;85.98
